createdAt,value
2018-06-11T00:01:39.308Z,14.10
2018-06-11T00:04:07.614Z,15.53
2018-06-11T00:06:35.963Z,11.83
2018-06-11T00:09:06.996Z,14.73
2018-06-11T00:11:35.473Z,12.57
2018-06-11T00:14:03.801Z,12.03
2018-06-11T00:16:32.253Z,13.03
2018-06-11T00:19:00.817Z,12.30
2018-06-11T00:21:29.112Z,13.90
2018-06-11T00:23:57.837Z,13.60
2018-06-11T00:26:26.165Z,13.43
2018-06-11T00:28:54.496Z,13.73
2018-06-11T00:31:22.833Z,15.90
2018-06-11T00:33:51.139Z,12.53
2018-06-11T00:36:19.177Z,12.70
2018-06-11T00:38:47.257Z,14.33
2018-06-11T00:41:15.344Z,14.17
2018-06-11T00:43:43.669Z,14.47
2018-06-11T00:46:11.854Z,12.60
2018-06-11T00:48:40.153Z,16.37
2018-06-11T00:51:08.216Z,12.60
2018-06-11T00:53:36.549Z,11.97
2018-06-11T00:56:06.708Z,13.53
2018-06-11T00:58:35.854Z,14.17
2018-06-11T01:01:04.529Z,15.03
2018-06-11T01:03:32.813Z,13.77
2018-06-11T01:06:01.177Z,15.23
2018-06-11T01:08:29.533Z,12.97
2018-06-11T01:10:57.840Z,14.53
2018-06-11T01:13:26.158Z,12.17
2018-06-11T01:15:54.613Z,12.10
2018-06-11T01:18:22.967Z,12.73
2018-06-11T01:20:51.283Z,14.50
2018-06-11T01:23:19.618Z,13.77
2018-06-11T01:25:47.956Z,12.00
2018-06-11T01:28:16.257Z,14.40
2018-06-11T01:30:44.686Z,12.07
2018-06-11T01:33:13.056Z,13.93
2018-06-11T01:35:41.373Z,14.03
2018-06-11T01:38:09.693Z,14.47
2018-06-11T01:40:38.005Z,13.83
2018-06-11T01:43:06.434Z,15.20
2018-06-11T01:45:35.339Z,13.90
2018-06-11T01:48:03.402Z,12.23
2018-06-11T01:50:31.757Z,14.63
2018-06-11T01:53:00.076Z,13.83
2018-06-11T01:55:28.392Z,13.07
2018-06-11T01:57:56.725Z,15.27
2018-06-11T02:00:25.277Z,11.50
2018-06-11T02:02:53.659Z,17.83
2018-06-11T02:05:21.957Z,14.47
2018-06-11T02:07:50.458Z,13.57
2018-06-11T02:10:18.805Z,15.07
2018-06-11T02:12:47.130Z,14.90
2018-06-11T02:15:15.614Z,15.90
2018-06-11T02:17:43.917Z,16.20
2018-06-11T02:20:12.231Z,14.47
2018-06-11T02:22:40.560Z,15.33
2018-06-11T02:25:08.909Z,14.50
2018-06-11T02:27:37.206Z,16.70
2018-06-11T02:30:05.709Z,14.93
2018-06-11T02:32:34.107Z,16.57
2018-06-11T02:35:02.470Z,15.63
2018-06-11T02:37:30.792Z,17.93
2018-06-11T02:39:59.125Z,16.13
2018-06-11T02:42:27.487Z,16.90
2018-06-11T02:44:55.813Z,14.67
2018-06-11T02:47:24.136Z,18.30
2018-06-11T02:49:52.414Z,14.17
2018-06-11T02:52:21.173Z,16.20
2018-06-11T02:54:49.537Z,16.57
2018-06-11T02:57:17.805Z,15.10
2018-06-11T02:59:46.125Z,18.43
2018-06-11T03:02:14.461Z,19.80
2018-06-11T03:04:42.792Z,18.40
2018-06-11T03:07:11.469Z,18.47
2018-06-11T03:09:39.912Z,19.07
2018-06-11T03:12:08.241Z,19.37
2018-06-11T03:14:37.193Z,18.03
2018-06-11T03:17:05.493Z,18.50
2018-06-11T03:19:34.913Z,17.27
2018-06-11T03:22:03.376Z,18.00
2018-06-11T03:24:31.700Z,19.63
2018-06-11T03:27:00.489Z,19.90
2018-06-11T03:29:28.942Z,16.97
2018-06-11T03:31:57.225Z,17.27
2018-06-11T03:34:25.508Z,19.63
2018-06-11T03:36:53.969Z,20.60
2018-06-11T03:39:22.322Z,19.40
2018-06-11T03:41:50.384Z,21.80
2018-06-11T03:44:19.512Z,20.37
2018-06-11T03:46:47.806Z,21.23
2018-06-11T03:49:16.479Z,18.00
2018-06-11T03:51:44.521Z,20.43
2018-06-11T03:54:12.696Z,21.07
2018-06-11T03:56:41.001Z,20.87
2018-06-11T03:59:09.324Z,16.60
2018-06-11T04:01:37.701Z,21.43
2018-06-11T04:04:06.098Z,21.63
2018-06-11T04:06:34.840Z,20.73
2018-06-11T04:09:04.620Z,19.77
2018-06-11T04:11:32.985Z,22.70
2018-06-11T04:14:01.785Z,23.33
2018-06-11T04:16:29.880Z,22.00
2018-06-11T04:18:58.162Z,20.87
2018-06-11T04:21:26.613Z,19.60
2018-06-11T04:23:54.732Z,25.30
2018-06-11T04:26:23.017Z,24.70
2018-06-11T04:28:51.321Z,20.97
2018-06-11T04:31:19.658Z,19.87
2018-06-11T04:33:48.005Z,20.73
2018-06-11T04:36:16.511Z,22.20
2018-06-11T04:38:44.796Z,23.37
2018-06-11T04:41:13.081Z,22.90
2018-06-11T04:43:41.540Z,23.50
2018-06-11T04:46:09.861Z,21.70
2018-06-11T04:48:38.181Z,20.00
2018-06-11T04:51:06.296Z,21.03
2018-06-11T04:53:34.577Z,22.67
2018-06-11T04:56:02.969Z,21.70
2018-06-11T04:58:31.369Z,21.57
2018-06-11T05:00:59.696Z,23.07
2018-06-11T05:03:28.073Z,21.37
2018-06-11T05:05:56.518Z,23.33
2018-06-11T05:08:24.845Z,20.80
2018-06-11T05:10:53.185Z,20.37
2018-06-11T05:13:21.703Z,25.17
2018-06-11T05:15:50.026Z,25.77
2018-06-11T05:18:18.434Z,22.33
2018-06-11T05:20:46.777Z,20.33
2018-06-11T05:23:15.157Z,20.47
2018-06-11T05:25:45.695Z,19.90
2018-06-11T05:28:16.179Z,18.63
2018-06-11T05:30:54.922Z,21.53
2018-06-11T05:33:31.212Z,21.60
2018-06-11T05:35:59.521Z,21.33
2018-06-11T05:38:28.074Z,20.73
2018-06-11T05:40:56.808Z,18.27
2018-06-11T05:43:25.209Z,20.27
2018-06-11T05:45:53.585Z,20.67
2018-06-11T05:48:27.927Z,23.00
2018-06-11T05:50:56.289Z,18.17
2018-06-11T05:53:26.940Z,18.27
2018-06-11T05:56:00.820Z,17.23
2018-06-11T05:58:29.121Z,17.30
2018-06-11T06:01:03.828Z,21.70
2018-06-11T06:03:33.137Z,18.93
2018-06-11T06:06:02.361Z,18.60
2018-06-11T06:08:35.661Z,18.57
2018-06-11T06:11:04.988Z,20.23
2018-06-11T06:13:51.896Z,16.67
2018-06-11T06:16:20.317Z,18.00
2018-06-11T06:18:49.090Z,18.10
2018-06-11T06:21:18.877Z,19.63
2018-06-11T06:23:47.564Z,15.23
2018-06-11T06:26:15.845Z,15.07
2018-06-11T06:28:44.254Z,16.70
2018-06-11T06:31:12.638Z,17.57
2018-06-11T06:33:40.981Z,14.57
2018-06-11T06:36:09.490Z,16.50
2018-06-11T06:38:37.794Z,16.43
2018-06-11T06:41:06.124Z,17.10
2018-06-11T06:43:34.826Z,16.13
2018-06-11T06:46:05.376Z,16.97
2018-06-11T06:48:33.685Z,15.97
2018-06-11T06:51:02.017Z,14.03
2018-06-11T06:53:32.441Z,13.23
2018-06-11T06:56:00.745Z,14.83
2018-06-11T06:58:29.050Z,14.67
2018-06-11T07:01:01.190Z,14.20
2018-06-11T07:03:29.509Z,13.83
2018-06-11T07:05:57.845Z,12.33
2018-06-11T07:08:26.234Z,12.43
2018-06-11T07:10:55.009Z,15.17
2018-06-11T07:13:23.318Z,12.77
2018-06-11T07:15:52.557Z,11.27
2018-06-11T07:18:21.053Z,16.23
2018-06-11T07:20:49.424Z,11.60
2018-06-11T07:23:20.078Z,13.13
2018-06-11T07:25:48.742Z,11.00
2018-06-11T07:28:17.576Z,12.77
2018-06-11T07:30:47.149Z,13.33
2018-06-11T07:33:16.585Z,15.10
2018-06-11T07:35:46.939Z,12.23
2018-06-11T07:38:16.329Z,14.70
2018-06-11T07:40:46.498Z,13.13
2018-06-11T07:43:16.032Z,13.93
2018-06-11T07:45:45.181Z,12.23
2018-06-11T07:48:14.015Z,11.70
2018-06-11T07:50:42.825Z,12.23
2018-06-11T07:53:11.167Z,13.03
2018-06-11T07:55:39.985Z,15.30
2018-06-11T07:58:09.246Z,12.53
2018-06-11T08:00:38.072Z,15.07
2018-06-11T08:03:07.092Z,11.83
2018-06-11T08:05:36.502Z,15.87
2018-06-11T08:08:05.011Z,15.57
2018-06-11T08:10:33.606Z,15.27
2018-06-11T08:13:01.970Z,11.70
2018-06-11T08:15:30.293Z,10.63
2018-06-11T08:17:58.650Z,12.47
2018-06-11T08:20:26.984Z,14.17
2018-06-11T08:22:55.088Z,12.63
2018-06-11T08:25:23.441Z,11.27
2018-06-11T08:27:51.825Z,13.27
2018-06-11T08:30:20.581Z,11.40
2018-06-11T08:32:49.740Z,11.20
2018-06-11T08:35:18.017Z,13.73
2018-06-11T08:37:46.332Z,11.23
2018-06-11T08:40:15.033Z,12.23
2018-06-11T08:42:43.329Z,10.63
2018-06-11T08:45:11.613Z,11.40
2018-06-11T08:47:41.181Z,11.63
2018-06-11T08:50:11.863Z,12.67
2018-06-11T08:52:40.337Z,13.17
2018-06-11T08:55:08.674Z,11.87
2018-06-11T08:57:37.049Z,11.20
2018-06-11T09:00:06.107Z,10.77
2018-06-11T09:02:34.421Z,12.47
2018-06-11T09:05:03.175Z,12.33
2018-06-11T09:07:31.638Z,11.93
2018-06-11T09:10:00.072Z,10.70
2018-06-11T09:12:28.526Z,11.97
2018-06-11T09:14:57.084Z,10.27
2018-06-11T09:17:25.417Z,11.03
2018-06-11T09:19:53.725Z,12.53
2018-06-11T09:22:22.218Z,11.93
2018-06-11T09:24:50.669Z,10.20
2018-06-11T09:27:18.700Z,10.87
2018-06-11T09:29:47.466Z,10.93
2018-06-11T09:32:16.597Z,11.53
2018-06-11T09:34:46.173Z,11.83
2018-06-11T09:37:14.485Z,11.60
2018-06-11T09:39:43.985Z,12.90
2018-06-11T09:42:14.926Z,7.87
2018-06-11T09:44:43.241Z,11.53
2018-06-11T09:47:12.005Z,8.03
2018-06-11T09:49:42.770Z,9.87
2018-06-11T09:52:11.113Z,8.97
2018-06-11T09:54:39.572Z,8.97
2018-06-11T09:57:09.226Z,9.73
2018-06-11T09:59:39.275Z,10.93
2018-06-11T10:02:08.578Z,6.53
2018-06-11T10:04:41.669Z,9.90
2018-06-11T10:07:11.606Z,10.53
2018-06-11T10:09:42.737Z,8.27
2018-06-11T10:12:11.064Z,7.60
2018-06-11T10:14:39.445Z,8.93
2018-06-11T10:17:08.857Z,8.60
2018-06-11T10:19:37.130Z,7.20
2018-06-11T10:22:05.831Z,9.47
2018-06-11T10:24:34.299Z,8.90
2018-06-11T10:27:02.689Z,7.50
2018-06-11T10:29:31.314Z,10.47
2018-06-11T10:31:59.633Z,7.77
2018-06-11T10:34:29.627Z,6.00
2018-06-11T10:36:57.997Z,7.50
2018-06-11T10:39:26.909Z,6.93
2018-06-11T10:44:28.477Z,6.87
2018-06-11T10:46:57.178Z,9.13
2018-06-11T10:49:30.506Z,9.10
2018-06-11T10:52:03.593Z,7.43
2018-06-11T10:54:32.414Z,7.27
2018-06-11T10:57:02.105Z,7.57
2018-06-11T10:59:30.697Z,9.37
2018-06-11T11:01:59.781Z,7.37
2018-06-11T11:04:28.710Z,6.90
2018-06-11T11:06:57.013Z,8.13
2018-06-11T11:09:25.365Z,8.67
2018-06-11T11:11:54.368Z,9.00
2018-06-11T11:14:22.720Z,10.47
2018-06-11T11:16:51.903Z,10.40
2018-06-11T11:19:22.247Z,10.03
2018-06-11T11:21:50.553Z,10.17
2018-06-11T11:24:19.361Z,11.80
2018-06-11T11:26:48.679Z,9.00
2018-06-11T11:29:18.410Z,8.17
2018-06-11T11:31:52.478Z,10.27
2018-06-11T11:34:20.789Z,12.00
2018-06-11T11:36:53.529Z,11.80
2018-06-11T11:39:26.357Z,9.70
2018-06-11T11:41:55.281Z,8.47
2018-06-11T11:44:24.175Z,6.93
2018-06-11T11:46:57.281Z,9.63
2018-06-11T11:49:30.375Z,9.57
2018-06-11T11:52:05.088Z,12.77
2018-06-11T11:54:35.030Z,12.67
2018-06-11T11:57:08.097Z,11.37
2018-06-11T11:59:39.532Z,10.87
2018-06-11T12:02:08.157Z,11.10
2018-06-11T12:04:37.253Z,10.60
2018-06-11T12:07:05.856Z,10.03
2018-06-11T12:09:34.340Z,9.63
2018-06-11T12:12:02.646Z,9.70
2018-06-11T12:14:31.503Z,11.40
2018-06-11T12:17:01.042Z,9.37
2018-06-11T12:19:29.478Z,11.47
2018-06-11T12:21:58.360Z,14.57
2018-06-11T12:24:26.897Z,11.13
2018-06-11T12:26:55.575Z,8.83
2018-06-11T12:29:24.337Z,10.93
2018-06-11T12:31:53.121Z,9.50
2018-06-11T12:34:21.393Z,7.77
2018-06-11T12:36:50.481Z,10.20
2018-06-11T12:39:21.099Z,9.33
2018-06-11T12:41:49.445Z,9.60
2018-06-11T12:44:21.405Z,11.37
2018-06-11T12:46:50.546Z,11.17
2018-06-11T12:49:20.373Z,9.80
2018-06-11T12:51:49.013Z,10.80
2018-06-11T12:54:18.595Z,9.87
2018-06-11T12:56:46.976Z,10.07
2018-06-11T12:59:15.500Z,11.20
2018-06-11T13:01:56.625Z,11.83
2018-06-11T13:04:27.238Z,11.60
2018-06-11T13:07:06.566Z,10.70
2018-06-11T13:09:34.882Z,11.47
2018-06-11T13:12:25.342Z,12.20
2018-06-11T13:14:54.617Z,8.67
2018-06-11T13:17:22.971Z,9.67
2018-06-11T13:19:51.248Z,8.93
2018-06-11T13:22:19.878Z,10.23
2018-06-11T13:24:48.382Z,9.93
2018-06-11T13:27:16.484Z,10.40
2018-06-11T13:29:45.109Z,11.17
2018-06-11T13:32:14.026Z,10.37
2018-06-11T13:34:42.914Z,10.10
2018-06-11T13:37:12.498Z,12.40
2018-06-11T13:39:42.113Z,10.03
2018-06-11T13:42:14.780Z,8.53
2018-06-11T13:44:43.075Z,10.13
2018-06-11T13:47:11.380Z,8.27
2018-06-11T13:49:39.644Z,8.87
2018-06-11T13:52:08.610Z,8.67
2018-06-11T13:54:37.145Z,11.73
2018-06-11T13:57:05.901Z,8.73
2018-06-11T13:59:34.541Z,10.00
2018-06-11T14:02:04.024Z,7.43
2018-06-11T14:04:32.909Z,7.80
2018-06-11T14:07:02.957Z,7.33
2018-06-11T14:09:31.538Z,8.60
2018-06-11T14:11:59.837Z,7.50
2018-06-11T14:14:28.383Z,9.93
2018-06-11T14:16:56.650Z,7.23
2018-06-11T14:19:26.890Z,11.20
2018-06-11T14:21:55.237Z,9.23
2018-06-11T14:24:24.480Z,10.30
2018-06-11T14:26:54.069Z,9.27
2018-06-11T14:29:22.700Z,9.10
2018-06-11T14:31:51.053Z,11.60
2018-06-11T14:34:19.447Z,7.83
2018-06-11T14:36:47.705Z,6.77
2018-06-11T14:39:15.977Z,8.20
2018-06-11T14:41:44.302Z,7.27
2018-06-11T14:44:12.653Z,8.87
2018-06-11T14:49:31.165Z,7.73
2018-06-11T14:51:59.884Z,10.10
2018-06-11T14:54:28.978Z,8.27
2018-06-11T14:56:57.288Z,7.50
2018-06-11T14:59:25.967Z,6.70
2018-06-11T15:01:55.272Z,7.07
2018-06-11T15:04:23.604Z,5.23
2018-06-11T15:06:52.141Z,9.10
2018-06-11T15:09:20.441Z,7.83
2018-06-11T15:11:49.076Z,5.90
2018-06-11T15:14:17.805Z,8.40
2018-06-11T15:16:46.362Z,7.20
2018-06-11T15:19:15.141Z,7.57
2018-06-11T15:21:43.829Z,6.60
2018-06-11T15:24:12.596Z,6.07
2018-06-11T15:26:45.357Z,11.30
2018-06-11T15:29:14.488Z,9.83
2018-06-11T15:31:42.761Z,7.60
2018-06-11T15:34:11.122Z,6.53
2018-06-11T15:36:39.416Z,8.53
2018-06-11T15:39:08.195Z,7.47
2018-06-11T15:41:36.550Z,6.90
2018-06-11T15:44:04.871Z,6.97
2018-06-11T15:46:33.208Z,8.87
2018-06-11T15:49:01.273Z,7.40
2018-06-11T15:51:29.569Z,8.27
2018-06-11T15:53:58.498Z,9.77
2018-06-11T15:56:26.956Z,6.30
2018-06-11T15:58:55.240Z,8.10
2018-06-11T16:01:23.737Z,7.13
2018-06-11T16:03:54.584Z,9.37
2018-06-11T16:06:22.945Z,7.30
2018-06-11T16:08:52.113Z,8.17
2018-06-11T16:11:20.873Z,7.60
2018-06-11T16:13:53.652Z,9.60
2018-06-11T16:16:26.473Z,7.93
2018-06-11T16:18:55.352Z,8.10
2018-06-11T16:21:23.637Z,6.37
2018-06-11T16:23:54.355Z,9.77
2018-06-11T16:26:23.178Z,9.80
2018-06-11T16:28:51.897Z,7.63
2018-06-11T16:31:20.613Z,10.37
2018-06-11T16:33:48.848Z,9.80
2018-06-11T16:36:17.150Z,5.87
2018-06-11T16:38:45.449Z,9.80
2018-06-11T16:41:13.742Z,9.20
2018-06-11T16:43:42.109Z,8.37
2018-06-11T16:46:11.100Z,12.00
2018-06-11T16:48:39.433Z,10.33
2018-06-11T16:51:07.717Z,9.17
2018-06-11T16:53:36.088Z,8.50
2018-06-11T16:56:04.446Z,11.43
2018-06-11T16:58:32.722Z,8.23
2018-06-11T17:01:00.995Z,11.63
2018-06-11T17:03:29.265Z,8.57
2018-06-11T17:05:57.568Z,12.20
2018-06-11T17:08:26.029Z,11.57
2018-06-11T17:10:54.345Z,10.83
2018-06-11T17:13:22.650Z,11.07
2018-06-11T17:15:51.217Z,11.37
2018-06-11T17:18:19.576Z,12.30
2018-06-11T17:20:47.849Z,12.90
2018-06-11T17:23:16.145Z,10.30
2018-06-11T17:25:44.480Z,11.53
2018-06-11T17:28:12.749Z,9.00
2018-06-11T17:30:41.651Z,8.43
2018-06-11T17:33:10.029Z,10.27
2018-06-11T17:35:38.304Z,12.03
2018-06-11T17:38:06.680Z,10.77
2018-06-11T17:40:35.073Z,11.07
2018-06-11T17:43:03.345Z,10.30
2018-06-11T17:45:31.720Z,11.07
2018-06-11T17:48:00.126Z,10.70
2018-06-11T17:50:28.400Z,10.17
2018-06-11T17:52:56.748Z,8.53
2018-06-11T17:55:25.036Z,9.07
2018-06-11T17:57:54.604Z,11.80
2018-06-11T18:00:23.269Z,11.47
2018-06-11T18:02:51.324Z,10.23
2018-06-11T18:05:19.589Z,8.40
2018-06-11T18:07:47.921Z,9.57
2018-06-11T18:10:16.617Z,8.93
2018-06-11T18:12:44.956Z,9.90
2018-06-11T18:15:14.063Z,10.40
2018-06-11T18:17:42.378Z,11.33
2018-06-11T18:20:10.903Z,9.03
2018-06-11T18:22:39.334Z,11.40
2018-06-11T18:25:07.686Z,8.63
2018-06-11T18:27:36.133Z,9.03
2018-06-11T18:30:04.792Z,9.73
2018-06-11T18:32:33.089Z,11.03
2018-06-11T18:35:01.529Z,13.37
2018-06-11T18:37:29.820Z,10.20
2018-06-11T18:39:58.215Z,10.63
2018-06-11T18:42:26.493Z,8.43
2018-06-11T18:44:55.231Z,9.30
2018-06-11T18:47:23.545Z,9.73
2018-06-11T18:49:51.585Z,8.23
2018-06-11T18:52:20.324Z,11.77
2018-06-11T18:54:48.636Z,10.87
2018-06-11T18:57:17.009Z,12.10
2018-06-11T18:59:45.343Z,10.63
2018-06-11T19:02:13.685Z,9.73
2018-06-11T19:04:42.013Z,11.63
2018-06-11T19:07:10.623Z,14.50
2018-06-11T19:09:38.886Z,14.37
2018-06-11T19:12:07.229Z,11.83
2018-06-11T19:14:36.369Z,12.37
2018-06-11T19:17:04.685Z,12.13
2018-06-11T19:19:33.001Z,11.93
2018-06-11T19:22:01.380Z,14.03
2018-06-11T19:24:29.660Z,12.60
2018-06-11T19:26:58.054Z,11.80
2018-06-11T19:29:26.833Z,9.83
2018-06-11T19:31:55.871Z,12.47
2018-06-11T19:34:24.232Z,10.80
2018-06-11T19:36:52.804Z,14.60
2018-06-11T19:39:21.801Z,13.20
2018-06-11T19:41:50.380Z,9.60
2018-06-11T19:44:18.865Z,12.03
2018-06-11T19:46:47.281Z,11.83
2018-06-11T19:49:15.705Z,14.60
2018-06-11T19:51:44.906Z,12.10
2018-06-11T19:54:13.301Z,10.93
2018-06-11T19:56:42.274Z,15.10
2018-06-11T19:59:11.189Z,12.00
2018-06-11T20:01:39.509Z,15.37
2018-06-11T20:04:08.023Z,13.33
2018-06-11T20:06:36.352Z,15.10
2018-06-11T20:09:07.839Z,16.03
2018-06-11T20:11:36.231Z,15.23
2018-06-11T20:14:05.283Z,13.47
2018-06-11T20:16:33.620Z,17.77
2018-06-11T20:19:01.981Z,12.07
2018-06-11T20:21:30.508Z,17.90
2018-06-11T20:23:58.905Z,14.07
2018-06-11T20:26:28.037Z,15.40
2018-06-11T20:28:56.416Z,14.97
2018-06-11T20:31:25.717Z,16.23
2018-06-11T20:33:54.244Z,17.00
2018-06-11T20:36:22.645Z,12.80
2018-06-11T20:38:51.063Z,15.63
2018-06-11T20:41:19.461Z,16.03
2018-06-11T20:43:47.800Z,15.07
2018-06-11T20:46:16.985Z,15.90
2018-06-11T20:48:45.362Z,16.30
2018-06-11T20:51:14.069Z,13.97
2018-06-11T20:53:43.113Z,19.10
2018-06-11T20:56:12.186Z,15.87
2018-06-11T20:58:40.750Z,16.33
2018-06-11T21:01:09.232Z,17.47
2018-06-11T21:03:37.933Z,16.40
2018-06-11T21:06:06.374Z,18.90
2018-06-11T21:08:34.796Z,20.70
2018-06-11T21:11:03.282Z,16.10
2018-06-11T21:13:31.629Z,17.87
2018-06-11T21:16:00.083Z,15.80
2018-06-11T21:18:28.529Z,14.93
2018-06-11T21:20:56.937Z,15.63
2018-06-11T21:23:25.013Z,17.03
2018-06-11T21:25:53.413Z,18.55
2018-06-11T21:28:21.802Z,17.43
2018-06-11T21:30:50.182Z,16.60
2018-06-11T21:33:18.723Z,19.07
2018-06-11T21:35:47.304Z,20.03
2018-06-11T21:38:15.653Z,18.30
2018-06-11T21:40:43.993Z,18.57
2018-06-11T21:43:12.341Z,17.60
2018-06-11T21:45:40.685Z,17.93
2018-06-11T21:48:09.767Z,18.27
2018-06-11T21:50:38.247Z,16.87
2018-06-11T21:53:07.245Z,18.50
2018-06-11T21:55:35.681Z,20.33
2018-06-11T21:58:04.192Z,18.40
2018-06-11T22:00:32.561Z,17.87
2018-06-11T22:03:00.904Z,18.40
2018-06-11T22:05:29.292Z,17.03
2018-06-11T22:07:57.771Z,15.80
2018-06-11T22:10:26.368Z,17.77
2018-06-11T22:12:54.752Z,16.90
2018-06-11T22:15:22.824Z,19.80
2018-06-11T22:17:50.981Z,19.70
2018-06-11T22:20:19.380Z,16.40
2018-06-11T22:22:47.460Z,18.10
2018-06-11T22:25:15.841Z,20.07
2018-06-11T22:27:44.156Z,22.20
2018-06-11T22:30:12.696Z,18.80
2018-06-11T22:32:41.059Z,18.60
2018-06-11T22:35:09.533Z,17.37
2018-06-11T22:37:37.873Z,18.20
2018-06-11T22:40:06.213Z,19.30
2018-06-11T22:42:34.537Z,19.33
2018-06-11T22:45:03.330Z,17.30
2018-06-11T22:47:31.841Z,18.43
2018-06-11T22:49:59.964Z,19.67
2018-06-11T22:52:28.321Z,20.83
2018-06-11T22:54:56.759Z,19.43
2018-06-11T22:57:25.140Z,20.93
2018-06-11T22:59:53.449Z,23.50
2018-06-11T23:02:21.821Z,17.80
2018-06-11T23:04:50.220Z,23.20
2018-06-11T23:07:18.526Z,20.43
2018-06-11T23:09:46.977Z,18.77
2018-06-11T23:12:15.305Z,20.13
2018-06-11T23:14:43.697Z,19.97
2018-06-11T23:17:12.194Z,20.97
2018-06-11T23:19:40.508Z,19.37
2018-06-11T23:22:08.926Z,18.73
2018-06-11T23:24:37.313Z,20.90
2018-06-11T23:27:05.649Z,19.43
2018-06-11T23:29:33.989Z,18.60
2018-06-11T23:32:02.346Z,19.43
2018-06-11T23:34:30.641Z,20.53
2018-06-11T23:36:59.481Z,20.60
2018-06-11T23:39:27.933Z,22.93
2018-06-11T23:41:56.286Z,22.37
2018-06-11T23:44:24.625Z,20.67
2018-06-11T23:46:53.241Z,20.40
2018-06-11T23:49:21.597Z,21.27
2018-06-11T23:51:49.919Z,20.37
2018-06-11T23:54:18.405Z,18.30
2018-06-11T23:56:46.733Z,20.97
2018-06-11T23:59:15.050Z,20.13
